Time;durP1;ratioP1;P1;durP2;ratioP2;P2;SDS_P1;SDS_P2;PMS_P1;PMS_P2;Temp;Humidity;BMP_temperature;BMP_pressure;BME280_temperature;BME280_humidity;BME280_pressure;Samples;Min_cycle;Max_cycle;Signal;HPM_P1;HPM_P2
2021/06/16 00:01:13;;;;;;;;;;;;;;;21.06;47.64;99059.44;5133663;27;19971;-38
2021/06/16 00:03:39;;;;;;;;;;;;;;;21.18;47.21;99071.75;5133734;27;20355;-38
2021/06/16 00:06:04;;;;;;;;;;;;;;;21.49;46.55;99064.06;5133597;27;20410;-38
2021/06/16 00:08:29;;;;;;;;;;;;;;;21.00;47.49;99078.72;5133379;27;19911;-38
2021/06/16 00:10:55;;;;;;;;;;;;;;;21.11;48.40;99076.69;5133723;27;19976;-38
2021/06/16 00:13:20;;;;;;;;;;;;;;;21.27;46.62;99073.50;5133632;27;20335;-38
2021/06/16 00:15:47;;;;;;;;;;;;;;;20.86;47.73;99068.59;5133268;27;20306;-38
2021/06/16 00:18:12;;;;;;;;;;;;;;;21.01;47.47;99075.72;5133087;27;20383;-38
2021/06/16 00:20:38;;;;;;;;;;;;;;;21.17;47.22;99070.13;5142577;27;19911;-38
2021/06/16 00:23:03;;;;;;;;;;;;;;;21.23;47.17;99071.69;5133868;27;19915;-38
2021/06/16 00:25:29;;;;;;;;;;;;;;;21.05;47.82;99068.63;5133187;27;19930;-38
2021/06/16 00:27:54;;;;;;;;;;;;;;;20.86;48.08;99057.78;5132902;27;19915;-38
2021/06/16 00:30:19;;;;;;;;;;;;;;;20.80;48.59;99063.53;5114430;27;19995;-37
2021/06/16 00:32:45;;;;;;;;;;;;;;;21.13;48.11;99056.38;5114134;27;19911;-38
2021/06/16 00:35:10;;;;;;;;;;;;;;;21.02;48.17;99063.03;5132931;27;20369;-38
2021/06/16 00:37:36;;;;;;;;;;;;;;;20.99;48.40;99058.97;5132708;27;19964;-38
2021/06/16 00:40:05;;;;;;;;;;;;;;;21.01;48.25;99053.28;5132786;27;19918;-38
2021/06/16 00:42:30;;;;;;;;;;;;;;;20.88;49.01;99047.47;5132961;27;19918;-38
2021/06/16 00:44:56;;;;;;;;;;;;;;;21.19;48.21;99049.00;5132676;27;19998;-38
2021/06/16 00:47:21;;;;;;;;;;;;;;;20.93;48.34;99046.63;5132692;27;19911;-39
2021/06/16 00:49:46;;;;;;;;;;;;;;;21.26;48.08;99038.63;5132728;27;19912;-37
2021/06/16 00:52:11;;;;;;;;;;;;;;;21.22;48.19;99035.69;5132770;27;19946;-38
2021/06/16 00:54:37;;;;;;;;;;;;;;;21.17;47.85;99041.19;5131806;27;20350;-38
2021/06/16 00:57:02;;;;;;;;;;;;;;;21.29;47.57;99032.66;5132414;27;19919;-38
2021/06/16 00:59:32;;;;;;;;;;;;;;;20.82;48.58;99037.81;5131835;27;19911;-38
2021/06/16 01:01:57;;;;;;;;;;;;;;;21.07;48.48;99046.72;5131541;27;19980;-38
2021/06/16 01:04:23;;;;;;;;;;;;;;;21.12;48.95;99051.28;5113650;27;20232;-39
2021/06/16 01:06:52;;;;;;;;;;;;;;;21.22;48.39;99051.13;5131683;27;19938;-39
2021/06/16 01:09:18;;;;;;;;;;;;;;;21.31;48.57;99040.47;5113464;27;19911;-38
2021/06/16 01:12:03;;;;;;;;;;;;;;;21.29;47.94;99038.06;5131806;27;20002;-38
2021/06/16 01:14:37;;;;;;;;;;;;;;;21.19;48.30;99003.00;5131775;27;19927;-38
2021/06/16 01:17:03;;;;;;;;;;;;;;;21.02;49.19;99020.56;5106026;28;19997;-39
2021/06/16 01:19:41;;;;;;;;;;;;;;;21.01;49.21;99023.53;5126677;27;19993;-39
2021/06/16 01:22:08;;;;;;;;;;;;;;;21.34;48.46;99021.72;5104779;27;20639;-40
2021/06/16 01:24:33;;;;;;;;;;;;;;;21.05;49.11;99024.56;5113454;27;19912;-38
2021/06/16 01:26:59;;;;;;;;;;;;;;;20.86;49.84;99030.72;5113336;28;20379;-38
2021/06/16 01:29:27;;;;;;;;;;;;;;;20.82;49.87;99043.22;5131786;27;20033;-38
2021/06/16 01:31:52;;;;;;;;;;;;;;;20.89;49.86;99037.47;5131617;27;19915;-38
2021/06/16 01:34:19;;;;;;;;;;;;;;;21.07;49.48;99034.00;5113344;28;19984;-38
2021/06/16 01:36:45;;;;;;;;;;;;;;;21.11;49.67;99030.72;5131436;27;19923;-38
2021/06/16 01:39:10;;;;;;;;;;;;;;;21.31;48.98;99029.66;5131810;28;19911;-37
2021/06/16 01:41:36;;;;;;;;;;;;;;;21.01;49.98;99024.34;5131436;28;19920;-39
2021/06/16 01:44:01;;;;;;;;;;;;;;;21.19;49.82;99025.47;5113277;28;19950;-38
2021/06/16 01:46:27;;;;;;;;;;;;;;;21.29;49.94;99040.75;5113541;28;19923;-38
2021/06/16 01:48:52;;;;;;;;;;;;;;;21.19;49.97;99036.28;5113133;28;20375;-37
2021/06/16 01:51:17;;;;;;;;;;;;;;;21.01;50.54;99031.66;5131719;28;19964;-37
2021/06/16 01:53:43;;;;;;;;;;;;;;;21.31;50.12;99037.78;5131896;28;19912;-45
2021/06/16 01:56:08;;;;;;;;;;;;;;;21.39;49.69;99039.81;5131728;28;19911;-37
2021/06/16 01:58:33;;;;;;;;;;;;;;;21.09;50.49;99042.66;5113302;28;19950;-38
2021/06/16 02:00:59;;;;;;;;;;;;;;;21.14;50.28;99054.50;5096178;28;19911;-38
2021/06/16 02:03:24;;;;;;;;;;;;;;;21.04;50.78;99052.72;5131734;28;19943;-38
2021/06/16 02:05:49;;;;;;;;;;;;;;;20.87;51.32;99048.59;5114611;27;19987;-38
2021/06/16 02:08:19;;;;;;;;;;;;;;;20.99;50.90;99055.47;5135674;27;19911;-38
2021/06/16 02:10:45;;;;;;;;;;;;;;;20.71;51.50;99052.53;5130703;27;19915;-38
2021/06/16 02:13:10;;;;;;;;;;;;;;;20.65;52.29;99045.59;5096706;28;20021;-38
2021/06/16 02:15:45;;;;;;;;;;;;;;;20.98;51.16;99049.28;5096233;28;19936;-39
2021/06/16 02:18:10;;;;;;;;;;;;;;;20.87;51.56;99045.06;5114562;28;19916;-38
2021/06/16 02:20:36;;;;;;;;;;;;;;;20.55;52.09;99049.16;5123306;27;19919;-39
2021/06/16 02:23:01;;;;;;;;;;;;;;;20.69;52.06;99049.31;5135079;27;19915;-39
2021/06/16 02:25:26;;;;;;;;;;;;;;;20.96;51.63;99051.47;5135243;27;19991;-38
2021/06/16 02:27:52;;;;;;;;;;;;;;;21.19;51.16;99054.41;5135127;27;19934;-38
2021/06/16 02:30:17;;;;;;;;;;;;;;;21.21;50.95;99049.50;5135531;27;20348;-39
2021/06/16 02:32:43;;;;;;;;;;;;;;;21.32;50.89;99058.31;5135117;27;19963;-39
2021/06/16 02:35:08;;;;;;;;;;;;;;;20.97;51.55;99054.97;5135088;27;19927;-38
2021/06/16 02:37:37;;;;;;;;;;;;;;;20.97;51.49;99061.16;5135095;27;20311;-39
2021/06/16 02:40:04;;;;;;;;;;;;;;;21.17;51.15;99062.00;5116633;27;19956;-39
2021/06/16 02:42:29;;;;;;;;;;;;;;;21.11;51.46;99060.47;5134954;27;19915;-38
2021/06/16 02:44:54;;;;;;;;;;;;;;;21.34;50.75;99065.03;5116358;27;19922;-38
2021/06/16 02:47:20;;;;;;;;;;;;;;;21.28;51.06;99067.03;5116495;27;19972;-37
2021/06/16 02:49:49;;;;;;;;;;;;;;;21.53;50.64;99075.91;5134924;27;20019;-38
2021/06/16 02:52:15;;;;;;;;;;;;;;;21.55;50.30;99075.63;5116601;27;20372;-38
2021/06/16 02:54:41;;;;;;;;;;;;;;;21.58;50.46;99072.34;5116398;27;19951;-38
2021/06/16 02:57:06;;;;;;;;;;;;;;;21.64;50.13;99090.91;5134999;27;19966;-39
2021/06/16 02:59:33;;;;;;;;;;;;;;;21.92;49.48;99082.94;5116392;27;19911;-38
2021/06/16 03:01:58;;;;;;;;;;;;;;;21.84;49.91;99084.41;5116549;27;19968;-38
2021/06/16 03:04:23;;;;;;;;;;;;;;;21.80;50.18;99083.38;5134729;27;19919;-38
2021/06/16 03:06:49;;;;;;;;;;;;;;;21.76;50.23;99092.38;5134308;27;19911;-38
2021/06/16 03:09:15;;;;;;;;;;;;;;;21.67;50.52;99094.94;5132867;27;20271;-38
2021/06/16 03:11:40;;;;;;;;;;;;;;;21.38;51.36;99097.72;5132753;27;20291;-38
2021/06/16 03:14:05;;;;;;;;;;;;;;;21.26;51.02;99100.84;5134337;27;20006;-37
2021/06/16 03:16:31;;;;;;;;;;;;;;;21.32;50.98;99096.19;5133560;27;20263;-37
2021/06/16 03:18:56;;;;;;;;;;;;;;;21.64;50.14;99095.53;5133890;27;19923;-38
2021/06/16 03:21:22;;;;;;;;;;;;;;;21.81;49.92;99092.31;5130799;27;19992;-38
2021/06/16 03:23:47;;;;;;;;;;;;;;;21.46;50.90;99100.63;5133991;27;19911;-38
2021/06/16 03:26:13;;;;;;;;;;;;;;;21.50;50.98;99094.66;5115363;27;19912;-39
2021/06/16 03:28:38;;;;;;;;;;;;;;;21.90;49.77;99095.16;5134083;27;20015;-39
2021/06/16 03:31:03;;;;;;;;;;;;;;;21.34;51.12;99097.50;5134100;27;19963;-39
2021/06/16 03:33:29;;;;;;;;;;;;;;;21.37;51.42;99096.94;5115552;27;19912;-39
2021/06/16 03:35:54;;;;;;;;;;;;;;;21.14;51.82;99098.56;5115622;27;19987;-38
2021/06/16 03:38:20;;;;;;;;;;;;;;;21.09;52.44;99096.75;5115313;27;19950;-38
2021/06/16 03:40:45;;;;;;;;;;;;;;;21.46;51.11;99106.03;5133889;27;19927;-38
2021/06/16 03:43:11;;;;;;;;;;;;;;;21.40;51.19;99095.53;5115402;27;19964;-39
2021/06/16 03:45:36;;;;;;;;;;;;;;;21.06;52.54;99105.44;5134030;27;19934;-39
2021/06/16 03:48:02;;;;;;;;;;;;;;;21.47;51.46;99096.81;5133671;27;19911;-39
2021/06/16 03:50:27;;;;;;;;;;;;;;;21.32;51.46;99104.31;5132948;27;19911;-38
2021/06/16 03:52:53;;;;;;;;;;;;;;;21.62;51.53;99108.53;5114411;27;20350;-38
2021/06/16 03:55:19;;;;;;;;;;;;;;;21.19;51.99;99108.50;5133209;27;19912;-38
2021/06/16 03:57:44;;;;;;;;;;;;;;;20.98;52.64;99111.47;5114510;27;20382;-39
2021/06/16 04:00:10;;;;;;;;;;;;;;;21.20;52.50;99108.22;5132808;27;20386;-38
2021/06/16 04:02:35;;;;;;;;;;;;;;;21.05;52.19;99111.91;5150256;27;19918;-38
2021/06/16 04:05:01;;;;;;;;;;;;;;;21.15;52.42;99104.78;5153497;27;19911;-38
2021/06/16 04:07:27;;;;;;;;;;;;;;;21.13;51.90;99106.97;5153270;27;19983;-36
2021/06/16 04:09:52;;;;;;;;;;;;;;;21.49;51.41;99110.06;5134745;27;19921;-38
2021/06/16 04:12:18;;;;;;;;;;;;;;;21.60;50.96;99119.66;5153237;27;20401;-38
2021/06/16 04:14:43;;;;;;;;;;;;;;;21.07;52.47;99114.34;5134273;27;20041;-37
2021/06/16 04:17:08;;;;;;;;;;;;;;;21.14;52.42;99125.63;5134254;27;19919;-38
2021/06/16 04:19:34;;;;;;;;;;;;;;;21.39;52.15;99113.69;5152892;27;19927;-38
2021/06/16 04:21:59;;;;;;;;;;;;;;;21.45;51.39;99101.72;5141965;27;19914;-37
2021/06/16 04:24:24;;;;;;;;;;;;;;;21.46;51.94;99078.97;5111776;27;19923;-38
2021/06/16 04:26:50;;;;;;;;;;;;;;;21.66;51.06;99077.09;5126091;27;20295;-38
2021/06/16 04:29:15;;;;;;;;;;;;;;;21.89;51.11;99099.75;5131661;27;20006;-38
2021/06/16 04:31:40;;;;;;;;;;;;;;;21.90;50.72;99104.09;5131574;27;19919;-38
2021/06/16 04:34:05;;;;;;;;;;;;;;;21.58;51.30;99110.22;5131303;27;19912;-38
2021/06/16 04:36:31;;;;;;;;;;;;;;;21.08;52.49;99118.66;5138059;27;19980;-40
2021/06/16 04:38:56;;;;;;;;;;;;;;;21.60;51.59;99105.31;5143459;27;19911;-39
2021/06/16 04:41:21;;;;;;;;;;;;;;;21.45;51.92;99101.72;5140273;27;19911;-37
2021/06/16 04:43:47;;;;;;;;;;;;;;;21.48;52.08;99098.44;5148765;27;19969;-38
2021/06/16 04:46:12;;;;;;;;;;;;;;;21.42;51.59;99088.75;5152752;27;19922;-38
2021/06/16 04:48:40;;;;;;;;;;;;;;;21.22;52.40;99097.94;5152381;27;19911;-38
2021/06/16 04:51:05;;;;;;;;;;;;;;;21.42;52.15;99099.59;5152409;27;19922;-37
2021/06/16 04:53:30;;;;;;;;;;;;;;;21.53;51.50;99108.38;5152478;27;19997;-38
2021/06/16 04:55:56;;;;;;;;;;;;;;;21.68;51.12;99099.25;5152395;27;19971;-38
2021/06/16 04:58:21;;;;;;;;;;;;;;;21.78;50.70;99096.41;5146835;27;19943;-38
2021/06/16 05:00:46;;;;;;;;;;;;;;;21.62;51.93;99103.13;5126909;27;20233;-39
2021/06/16 05:03:12;;;;;;;;;;;;;;;21.76;51.00;99114.84;5139089;27;19951;-39
2021/06/16 05:05:37;;;;;;;;;;;;;;;21.94;50.23;99117.84;5125275;27;20022;-39
2021/06/16 05:08:02;;;;;;;;;;;;;;;21.94;50.74;99115.16;5131559;27;20286;-37
2021/06/16 05:10:28;;;;;;;;;;;;;;;22.15;49.99;99118.34;5131650;27;19911;-38
2021/06/16 05:12:53;;;;;;;;;;;;;;;22.14;50.19;99120.25;5131573;27;19954;-38
2021/06/16 05:15:18;;;;;;;;;;;;;;;22.08;50.76;99136.88;5130967;27;19923;-38
2021/06/16 05:17:43;;;;;;;;;;;;;;;22.11;50.28;99134.38;5131149;27;19919;-38
2021/06/16 05:20:12;;;;;;;;;;;;;;;22.16;50.42;99147.03;5130325;27;19915;-39
2021/06/16 05:22:37;;;;;;;;;;;;;;;22.39;49.96;99159.72;5130802;27;19919;-38
2021/06/16 05:25:03;;;;;;;;;;;;;;;22.11;50.45;99147.94;5130874;27;19911;-38
2021/06/16 05:27:29;;;;;;;;;;;;;;;22.33;49.53;99152.78;5112022;27;20599;-37
2021/06/16 05:29:54;;;;;;;;;;;;;;;22.73;48.99;99161.31;5131153;27;19926;-39
2021/06/16 05:32:20;;;;;;;;;;;;;;;22.86;49.56;99173.28;5131290;27;19943;-36
2021/06/16 05:34:45;;;;;;;;;;;;;;;23.21;47.97;99166.44;5129969;27;19911;-39
2021/06/16 05:37:10;;;;;;;;;;;;;;;23.16;48.25;99184.72;5130685;28;19954;-38
2021/06/16 05:39:36;;;;;;;;;;;;;;;23.02;48.90;99180.06;5131295;27;19911;-38
2021/06/16 05:42:01;;;;;;;;;;;;;;;23.05;48.84;99186.00;5131234;28;19918;-38
2021/06/16 05:44:27;;;;;;;;;;;;;;;22.88;49.53;99187.34;5113155;28;19922;-38
2021/06/16 05:46:52;;;;;;;;;;;;;;;23.27;48.76;99183.41;5131748;28;19911;-39
2021/06/16 05:49:17;;;;;;;;;;;;;;;23.81;47.25;99192.66;5130769;28;19923;-39
2021/06/16 05:51:42;;;;;;;;;;;;;;;23.29;48.39;99188.56;5131415;28;20396;-38
2021/06/16 05:54:10;;;;;;;;;;;;;;;23.74;47.32;99194.13;5131145;28;19911;-37
2021/06/16 05:56:38;;;;;;;;;;;;;;;23.38;48.22;99203.84;5131513;28;19915;-37
2021/06/16 05:59:03;;;;;;;;;;;;;;;23.81;47.40;99208.94;5131273;28;19919;-37
2021/06/16 06:01:29;;;;;;;;;;;;;;;23.42;47.86;99212.19;5131380;28;19911;-37
2021/06/16 06:03:54;;;;;;;;;;;;;;;23.57;48.12;99211.88;5131341;28;19916;-38
2021/06/16 06:06:20;;;;;;;;;;;;;;;23.23;48.63;99207.63;5131364;28;19912;-37
2021/06/16 06:08:45;;;;;;;;;;;;;;;23.03;49.42;99200.66;5131741;28;19911;-37
2021/06/16 06:11:10;;;;;;;;;;;;;;;23.48;48.40;99210.16;5131226;28;19923;-38
2021/06/16 06:13:36;;;;;;;;;;;;;;;22.74;49.85;99214.44;5131030;28;19994;-37
2021/06/16 06:16:01;;;;;;;;;;;;;;;22.43;50.52;99206.00;5130939;28;19923;-37
2021/06/16 06:18:26;;;;;;;;;;;;;;;22.61;50.19;99213.28;5130931;28;19915;-37
2021/06/16 06:20:51;;;;;;;;;;;;;;;22.29;50.90;99224.91;5130513;28;20009;-37
2021/06/16 06:23:17;;;;;;;;;;;;;;;22.48;50.08;99218.66;5131039;28;20252;-37
2021/06/16 06:25:42;;;;;;;;;;;;;;;22.10;51.89;99235.72;5131112;28;20282;-37
2021/06/16 06:28:07;;;;;;;;;;;;;;;22.38;50.48;99222.34;5130660;28;19912;-38
2021/06/16 06:30:33;;;;;;;;;;;;;;;22.35;50.44;99225.63;5130680;28;19911;-38
2021/06/16 06:32:58;;;;;;;;;;;;;;;22.17;51.32;99221.81;5112546;27;19986;-38
2021/06/16 06:35:23;;;;;;;;;;;;;;;22.45;50.10;99234.44;5112389;28;19918;-37
2021/06/16 06:37:48;;;;;;;;;;;;;;;22.60;49.43;99225.25;5130316;28;19915;-38
2021/06/16 06:40:14;;;;;;;;;;;;;;;22.51;49.89;99243.28;5129929;28;19972;-38
2021/06/16 06:42:39;;;;;;;;;;;;;;;22.18;50.51;99251.31;5129652;28;19981;-38
2021/06/16 06:45:05;;;;;;;;;;;;;;;22.20;50.92;99243.72;5130146;28;20335;-38
2021/06/16 06:47:31;;;;;;;;;;;;;;;22.86;49.08;99245.72;5111616;28;19983;-37
2021/06/16 06:49:56;;;;;;;;;;;;;;;23.12;48.79;99246.13;5129837;28;20366;-37
2021/06/16 06:52:21;;;;;;;;;;;;;;;23.13;48.62;99240.41;5131906;27;19915;-38
2021/06/16 06:54:47;;;;;;;;;;;;;;;22.88;49.86;99238.88;5134898;27;20271;-36
2021/06/16 06:57:12;;;;;;;;;;;;;;;23.24;48.83;99238.28;5134115;27;19915;-38
2021/06/16 06:59:37;;;;;;;;;;;;;;;23.28;48.69;99227.66;5134279;27;19999;-38
2021/06/16 07:02:02;;;;;;;;;;;;;;;23.05;49.00;99215.84;5134232;27;19911;-38
2021/06/16 07:04:28;;;;;;;;;;;;;;;23.53;47.99;99232.59;5134482;27;19917;-38
2021/06/16 07:06:53;;;;;;;;;;;;;;;23.82;47.41;99220.63;5134421;27;19981;-39
2021/06/16 07:09:18;;;;;;;;;;;;;;;23.91;47.19;99234.28;5134710;27;19919;-39
2021/06/16 07:11:44;;;;;;;;;;;;;;;23.37;48.54;99218.50;5134702;27;19926;-38
2021/06/16 07:14:09;;;;;;;;;;;;;;;23.49;48.06;99233.47;5134631;27;20363;-38
2021/06/16 07:16:34;;;;;;;;;;;;;;;23.61;48.37;99218.31;5132430;27;19923;-38
2021/06/16 07:19:00;;;;;;;;;;;;;;;23.34;48.86;99224.53;5134212;27;19916;-38
2021/06/16 07:21:25;;;;;;;;;;;;;;;23.63;48.18;99220.72;5133771;27;19922;-38
2021/06/16 07:23:51;;;;;;;;;;;;;;;23.93;47.62;99226.63;5134100;27;19954;-38
2021/06/16 07:26:16;;;;;;;;;;;;;;;24.02;47.61;99230.25;5134115;27;19911;-38
2021/06/16 07:28:41;;;;;;;;;;;;;;;24.19;47.35;99229.59;5133724;27;19938;-37
2021/06/16 07:31:06;;;;;;;;;;;;;;;24.19;47.74;99237.75;5134255;27;19911;-38
2021/06/16 07:33:32;;;;;;;;;;;;;;;24.65;46.95;99233.19;5133534;27;19912;-38
2021/06/16 07:35:57;;;;;;;;;;;;;;;24.93;46.29;99222.97;5146831;27;20005;-38
2021/06/16 07:38:22;;;;;;;;;;;;;;;24.74;46.40;99232.13;5154478;27;19953;-38
2021/06/16 07:40:48;;;;;;;;;;;;;;;25.00;46.30;99225.25;5154013;27;19915;-38
2021/06/16 07:43:13;;;;;;;;;;;;;;;24.75;46.44;99231.03;5154041;27;20006;-38
2021/06/16 07:45:38;;;;;;;;;;;;;;;25.01;45.39;99215.97;5154229;27;20362;-37
2021/06/16 07:48:04;;;;;;;;;;;;;;;25.29;45.09;99222.06;5148681;27;19922;-37
2021/06/16 07:50:29;;;;;;;;;;;;;;;25.42;44.65;99226.59;5133606;27;20002;-39
2021/06/16 07:52:55;;;;;;;;;;;;;;;25.11;45.37;99232.03;5132322;27;20002;-39
2021/06/16 07:55:20;;;;;;;;;;;;;;;25.59;44.09;99241.38;5133671;27;19912;-39
2021/06/16 07:57:45;;;;;;;;;;;;;;;25.44;44.61;99248.09;5133338;27;19915;-37
2021/06/16 08:00:11;;;;;;;;;;;;;;;24.92;45.69;99249.41;5133117;27;19915;-37
2021/06/16 08:02:38;;;;;;;;;;;;;;;24.96;46.15;99235.97;5133445;27;19915;-38
2021/06/16 08:05:03;;;;;;;;;;;;;;;25.65;44.47;99240.16;5131113;27;19912;-38
2021/06/16 08:07:29;;;;;;;;;;;;;;;25.66;44.77;99242.53;5132873;27;19930;-38
2021/06/16 08:09:54;;;;;;;;;;;;;;;26.07;43.64;99255.00;5132908;27;19952;-38
2021/06/16 08:12:19;;;;;;;;;;;;;;;26.08;44.25;99239.44;5133068;27;20360;-38
2021/06/16 08:14:45;;;;;;;;;;;;;;;26.61;42.77;99224.72;5132791;27;19924;-39
2021/06/16 08:17:10;;;;;;;;;;;;;;;26.56;42.74;99215.88;5133608;27;19915;-39
2021/06/16 08:19:35;;;;;;;;;;;;;;;27.18;42.55;99222.81;5153438;27;19911;-39
2021/06/16 08:22:01;;;;;;;;;;;;;;;27.69;41.45;99223.75;5142879;27;20387;-39
2021/06/16 08:24:26;;;;;;;;;;;;;;;27.57;41.67;99235.41;5114140;27;20389;-38
2021/06/16 08:26:51;;;;;;;;;;;;;;;27.69;41.27;99238.22;5132718;27;19918;-38
2021/06/16 08:29:17;;;;;;;;;;;;;;;27.88;40.61;99234.25;5133044;27;19999;-38
2021/06/16 08:31:42;;;;;;;;;;;;;;;27.60;41.35;99234.72;5132539;27;19911;-39
2021/06/16 08:34:07;;;;;;;;;;;;;;;28.13;39.96;99243.44;5132647;27;19918;-39
2021/06/16 08:36:33;;;;;;;;;;;;;;;27.15;41.40;99237.13;5132340;27;20278;-38
2021/06/16 08:38:58;;;;;;;;;;;;;;;27.44;41.36;99242.69;5132270;27;19984;-38
2021/06/16 08:41:24;;;;;;;;;;;;;;;27.01;42.11;99251.78;5132397;27;19918;-38
2021/06/16 08:43:49;;;;;;;;;;;;;;;26.98;41.70;99254.34;5132285;27;19960;-39
2021/06/16 08:46:15;;;;;;;;;;;;;;;27.14;41.02;99257.38;5132197;27;19987;-38
2021/06/16 08:48:41;;;;;;;;;;;;;;;26.81;41.61;99253.28;5131948;27;20006;-38
2021/06/16 08:51:06;;;;;;;;;;;;;;;26.54;42.45;99257.13;5131993;27;20503;-38
2021/06/16 08:53:32;;;;;;;;;;;;;;;26.10;43.33;99264.47;5131986;27;20283;-38
2021/06/16 08:55:57;;;;;;;;;;;;;;;26.08;43.55;99263.97;5113253;27;19911;-38
2021/06/16 08:58:22;;;;;;;;;;;;;;;26.07;43.57;99256.94;5131456;27;20444;-38
2021/06/16 09:00:48;;;;;;;;;;;;;;;25.51;44.31;99257.41;5131698;27;20406;-38
2021/06/16 09:03:13;;;;;;;;;;;;;;;25.84;43.62;99267.13;5131774;27;20412;-38
2021/06/16 09:05:39;;;;;;;;;;;;;;;25.92;43.54;99266.38;5131458;27;19911;-39
2021/06/16 09:08:17;;;;;;;;;;;;;;;25.21;45.32;99264.44;5132477;27;19912;-38
2021/06/16 09:10:43;;;;;;;;;;;;;;;25.15;45.36;99269.22;5131768;27;19912;-40
2021/06/16 09:13:09;;;;;;;;;;;;;;;25.28;44.56;99242.22;5131347;27;19918;-38
2021/06/16 09:15:36;;;;;;;;;;;;;;;25.46;44.60;99278.53;5112331;27;20009;-39
2021/06/16 09:18:05;;;;;;;;;;;;;;;25.34;44.88;99274.47;5141655;27;19915;-38
2021/06/16 09:20:41;;;;;;;;;;;;;;;25.45;44.69;99274.97;5152124;27;20000;-38
2021/06/16 09:23:18;;;;;;;;;;;;;;;25.41;44.77;99279.44;5132053;27;19934;-39
2021/06/16 09:25:44;;;;;;;;;;;;;;;25.44;45.05;99280.78;5131504;27;19920;-38
2021/06/16 09:28:10;;;;;;;;;;;;;;;25.16;45.58;99289.88;5131058;27;19912;-38
2021/06/16 09:30:36;;;;;;;;;;;;;;;24.92;46.04;99283.94;5112973;28;19972;-38
2021/06/16 09:33:06;;;;;;;;;;;;;;;24.84;46.44;99288.22;5131264;27;20304;-38
2021/06/16 09:35:36;;;;;;;;;;;;;;;25.12;46.05;99290.81;5130745;27;19919;-39
2021/06/16 09:38:02;;;;;;;;;;;;;;;24.94;46.45;99290.72;5131006;27;19915;-39
2021/06/16 09:40:34;;;;;;;;;;;;;;;25.12;45.92;99288.09;5131310;28;20336;-38
2021/06/16 09:43:00;;;;;;;;;;;;;;;25.20;45.89;99289.25;5131190;28;19937;-39
2021/06/16 09:45:26;;;;;;;;;;;;;;;24.71;47.09;99289.91;5131491;28;19926;-39
2021/06/16 09:47:52;;;;;;;;;;;;;;;25.10;45.77;99291.13;5131640;28;19915;-38
2021/06/16 09:50:21;;;;;;;;;;;;;;;25.12;45.94;99293.53;5131627;27;19916;-38
2021/06/16 09:52:50;;;;;;;;;;;;;;;25.27;45.61;99287.72;5131412;27;20007;-38
2021/06/16 09:55:21;;;;;;;;;;;;;;;25.01;46.29;99292.97;5131410;27;19915;-38
2021/06/16 09:58:03;;;;;;;;;;;;;;;25.62;45.42;99292.53;5131253;28;19919;-39
2021/06/16 10:00:31;;;;;;;;;;;;;;;25.37;45.61;99300.25;5129945;27;20387;-39
2021/06/16 10:03:13;;;;;;;;;;;;;;;25.56;45.60;99300.81;5142868;27;19994;-37
2021/06/16 10:05:57;;;;;;;;;;;;;;;25.49;45.57;99296.94;5138028;27;19915;-38
2021/06/16 10:08:23;;;;;;;;;;;;;;;25.91;44.91;99302.88;5135441;27;19972;-38
2021/06/16 10:10:49;;;;;;;;;;;;;;;26.35;44.36;99309.28;5131392;28;20270;-37
2021/06/16 10:13:14;;;;;;;;;;;;;;;26.75;43.71;99303.69;5112343;28;20017;-38
2021/06/16 10:15:40;;;;;;;;;;;;;;;27.19;43.30;99307.16;5112508;28;19972;-39
2021/06/16 10:18:05;;;;;;;;;;;;;;;27.34;43.16;99308.59;5130821;28;19998;-38
2021/06/16 10:20:30;;;;;;;;;;;;;;;27.68;42.31;99304.94;5130684;28;19988;-38
2021/06/16 10:22:56;;;;;;;;;;;;;;;28.37;40.99;99305.69;5131918;27;19954;-39
2021/06/16 10:25:21;;;;;;;;;;;;;;;28.08;41.84;99320.19;5124577;27;19947;-38
2021/06/16 10:27:53;;;;;;;;;;;;;;;28.70;40.87;99323.34;5125357;27;19922;-37
2021/06/16 10:30:20;;;;;;;;;;;;;;;28.54;38.38;99323.13;5127729;27;19919;-39
2021/06/16 10:32:47;;;;;;;;;;;;;;;28.56;37.93;99323.59;5128931;27;19946;-37
2021/06/16 10:35:12;;;;;;;;;;;;;;;28.45;36.62;99323.19;5120970;27;19919;-37
2021/06/16 10:37:39;;;;;;;;;;;;;;;28.30;36.58;99321.84;5155378;27;19915;-39
2021/06/16 10:40:16;;;;;;;;;;;;;;;28.43;36.55;99320.78;5155477;27;20399;-38
2021/06/16 10:43:03;;;;;;;;;;;;;;;28.76;35.97;99322.78;5155641;27;20294;-39
2021/06/16 10:45:32;;;;;;;;;;;;;;;28.90;35.45;99321.72;5155279;27;19911;-39
2021/06/16 10:48:01;;;;;;;;;;;;;;;29.10;35.05;99325.56;5155350;27;19946;-39
2021/06/16 10:50:45;;;;;;;;;;;;;;;28.43;36.11;99328.19;5155252;27;19947;-38
2021/06/16 10:53:10;;;;;;;;;;;;;;;28.41;36.40;99327.72;5155191;27;19911;-38
2021/06/16 10:55:57;;;;;;;;;;;;;;;28.83;35.79;99328.53;5155520;27;20073;-38
2021/06/16 10:58:25;;;;;;;;;;;;;;;29.79;35.57;99329.50;5137447;27;19923;-39
2021/06/16 11:01:10;;;;;;;;;;;;;;;30.35;33.70;99324.25;5136719;27;19911;-39
2021/06/16 11:03:51;;;;;;;;;;;;;;;30.19;32.75;99317.81;5154980;27;19926;-39
2021/06/16 11:06:46;;;;;;;;;;;;;;;30.49;33.12;99325.81;5154471;27;20548;-38
2021/06/16 11:09:13;;;;;;;;;;;;;;;29.68;34.58;99309.91;5136714;27;19998;-39
2021/06/16 11:11:48;;;;;;;;;;;;;;;29.38;34.52;99306.59;5154819;27;20273;-39
2021/06/16 11:14:32;;;;;;;;;;;;;;;29.84;33.70;99310.09;5153956;27;19923;-39
2021/06/16 11:16:58;;;;;;;;;;;;;;;30.04;33.67;99302.06;5154087;27;19968;-39
2021/06/16 11:19:27;;;;;;;;;;;;;;;29.75;33.16;99301.97;5154106;27;19915;-38
2021/06/16 11:21:53;;;;;;;;;;;;;;;28.76;33.97;99305.56;5144127;27;19922;-38
2021/06/16 11:24:18;;;;;;;;;;;;;;;29.54;33.41;99307.53;5133573;27;20007;-40
2021/06/16 11:26:44;;;;;;;;;;;;;;;28.87;33.64;99314.97;5133435;27;19915;-41
2021/06/16 11:29:09;;;;;;;;;;;;;;;29.15;33.18;99301.53;5133755;27;19912;-40
2021/06/16 11:31:53;;;;;;;;;;;;;;;29.19;32.72;99310.66;5134011;27;19911;-40
2021/06/16 11:34:41;;;;;;;;;;;;;;;28.90;33.82;99306.09;5133891;27;19911;-40
2021/06/16 11:37:06;;;;;;;;;;;;;;;29.29;33.52;99294.94;5122679;27;19911;-40
2021/06/16 11:39:31;;;;;;;;;;;;;;;29.88;33.39;99304.72;5133034;27;19926;-41
2021/06/16 11:41:57;;;;;;;;;;;;;;;29.94;33.42;99314.31;5114837;27;20267;-40
2021/06/16 11:44:23;;;;;;;;;;;;;;;29.47;32.37;99309.22;5133356;27;20007;-39
2021/06/16 11:46:48;;;;;;;;;;;;;;;29.44;31.97;99308.78;5115253;27;19912;-39
2021/06/16 11:49:18;;;;;;;;;;;;;;;29.74;32.13;99305.03;5133639;27;20371;-39
2021/06/16 11:51:44;;;;;;;;;;;;;;;30.08;31.61;99306.50;5133232;27;19923;-40
2021/06/16 11:54:19;;;;;;;;;;;;;;;30.09;31.20;99307.34;5133205;27;19911;-39
2021/06/16 11:56:55;;;;;;;;;;;;;;;30.20;31.12;99300.22;5133035;27;19995;-39
2021/06/16 11:59:38;;;;;;;;;;;;;;;30.25;31.51;99304.66;5133434;27;20397;-39
2021/06/16 12:02:04;;;;;;;;;;;;;;;29.85;31.50;99306.19;5133226;27;19915;-40
2021/06/16 12:04:42;;;;;;;;;;;;;;;30.15;31.41;99303.19;5132963;27;20546;-40
2021/06/16 12:07:07;;;;;;;;;;;;;;;30.13;30.97;99297.25;5132903;27;19911;-39
2021/06/16 12:09:43;;;;;;;;;;;;;;;30.19;31.12;99284.91;5132788;27;19979;-39
2021/06/16 12:12:08;;;;;;;;;;;;;;;29.48;31.19;99292.44;5132932;27;19919;-39
2021/06/16 12:14:33;;;;;;;;;;;;;;;29.55;32.03;99300.09;5113927;27;19915;-39
2021/06/16 12:17:02;;;;;;;;;;;;;;;29.72;31.97;99301.81;5134035;27;19916;-39
2021/06/16 12:19:27;;;;;;;;;;;;;;;30.40;31.03;99307.50;5153523;27;20017;-39
2021/06/16 12:21:53;;;;;;;;;;;;;;;29.81;31.21;99300.59;5124812;27;20499;-39
2021/06/16 12:24:19;;;;;;;;;;;;;;;29.89;31.37;99301.63;5132777;27;20310;-39
2021/06/16 12:26:55;;;;;;;;;;;;;;;30.31;31.08;99301.34;5132915;27;20000;-39
2021/06/16 12:29:20;;;;;;;;;;;;;;;31.08;30.60;99319.66;5114200;27;20001;-38
2021/06/16 12:31:48;;;;;;;;;;;;;;;30.97;29.42;99302.88;5132551;27;19950;-38
2021/06/16 12:34:30;;;;;;;;;;;;;;;30.20;30.08;99302.97;5132596;27;19911;-38
2021/06/16 12:37:22;;;;;;;;;;;;;;;29.48;31.85;99310.84;5132485;27;19911;-38
2021/06/16 12:39:57;;;;;;;;;;;;;;;29.94;31.23;99308.81;5128514;27;19916;-38
2021/06/16 12:42:33;;;;;;;;;;;;;;;29.09;32.10;99296.56;5132476;27;20264;-39
2021/06/16 12:44:58;;;;;;;;;;;;;;;29.44;31.88;99300.53;5132528;27;19911;-37
2021/06/16 12:47:28;;;;;;;;;;;;;;;29.13;31.73;99298.31;5132191;27;19912;-38